sensor_id;sensor_type;location;lat;lon;timestamp;P1;durP1;ratioP1;P2;durP2;ratioP2
51612;SDS011;37694;51.748;14.326;2023-03-20T00:02:23;15.60;;;8.45;;
51612;SDS011;37694;51.748;14.326;2023-03-20T00:04:49;11.05;;;8.23;;
51612;SDS011;37694;51.748;14.326;2023-03-20T00:07:14;17.60;;;8.98;;
51612;SDS011;37694;51.748;14.326;2023-03-20T00:09:40;14.88;;;7.60;;
51612;SDS011;37694;51.748;14.326;2023-03-20T00:12:06;12.25;;;8.35;;
51612;SDS011;37694;51.748;14.326;2023-03-20T00:14:39;16.27;;;8.52;;
51612;SDS011;37694;51.748;14.326;2023-03-20T00:17:09;19.25;;;8.98;;
51612;SDS011;37694;51.748;14.326;2023-03-20T00:19:44;13.98;;;8.13;;
51612;SDS011;37694;51.748;14.326;2023-03-20T00:22:10;13.73;;;8.68;;
51612;SDS011;37694;51.748;14.326;2023-03-20T00:24:36;11.98;;;8.25;;
51612;SDS011;37694;51.748;14.326;2023-03-20T00:27:02;13.00;;;8.68;;
51612;SDS011;37694;51.748;14.326;2023-03-20T00:29:30;11.98;;;8.68;;
51612;SDS011;37694;51.748;14.326;2023-03-20T00:31:57;11.40;;;7.65;;
51612;SDS011;37694;51.748;14.326;2023-03-20T00:34:24;11.73;;;8.18;;
51612;SDS011;37694;51.748;14.326;2023-03-20T00:36:53;12.48;;;8.80;;
51612;SDS011;37694;51.748;14.326;2023-03-20T00:39:20;16.50;;;9.48;;
51612;SDS011;37694;51.748;14.326;2023-03-20T00:41:53;14.25;;;8.45;;
51612;SDS011;37694;51.748;14.326;2023-03-20T00:44:28;12.43;;;8.52;;
51612;SDS011;37694;51.748;14.326;2023-03-20T00:46:58;11.10;;;8.48;;
51612;SDS011;37694;51.748;14.326;2023-03-20T00:49:31;12.07;;;8.68;;
51612;SDS011;37694;51.748;14.326;2023-03-20T00:51:59;11.93;;;8.35;;
51612;SDS011;37694;51.748;14.326;2023-03-20T00:54:26;13.75;;;8.85;;
51612;SDS011;37694;51.748;14.326;2023-03-20T00:56:56;12.07;;;8.63;;
51612;SDS011;37694;51.748;14.326;2023-03-20T00:59:29;12.30;;;8.00;;
51612;SDS011;37694;51.748;14.326;2023-03-20T01:01:58;13.80;;;8.80;;
51612;SDS011;37694;51.748;14.326;2023-03-20T01:04:25;14.20;;;8.07;;
51612;SDS011;37694;51.748;14.326;2023-03-20T01:06:59;12.15;;;8.75;;
51612;SDS011;37694;51.748;14.326;2023-03-20T01:09:25;13.45;;;8.75;;
51612;SDS011;37694;51.748;14.326;2023-03-20T01:11:51;14.70;;;8.27;;
51612;SDS011;37694;51.748;14.326;2023-03-20T01:14:17;10.30;;;7.78;;
51612;SDS011;37694;51.748;14.326;2023-03-20T01:16:42;11.45;;;8.65;;
51612;SDS011;37694;51.748;14.326;2023-03-20T01:19:10;14.73;;;7.50;;
51612;SDS011;37694;51.748;14.326;2023-03-20T01:21:37;9.10;;;7.85;;
51612;SDS011;37694;51.748;14.326;2023-03-20T01:24:02;13.90;;;8.50;;
51612;SDS011;37694;51.748;14.326;2023-03-20T01:29:22;13.23;;;8.88;;
51612;SDS011;37694;51.748;14.326;2023-03-20T01:31:50;11.25;;;8.75;;
51612;SDS011;37694;51.748;14.326;2023-03-20T01:34:16;11.02;;;8.45;;
51612;SDS011;37694;51.748;14.326;2023-03-20T01:36:49;12.00;;;8.35;;
51612;SDS011;37694;51.748;14.326;2023-03-20T01:39:17;10.50;;;7.90;;
51612;SDS011;37694;51.748;14.326;2023-03-20T01:41:46;10.32;;;7.68;;
51612;SDS011;37694;51.748;14.326;2023-03-20T01:44:32;13.30;;;9.02;;
51612;SDS011;37694;51.748;14.326;2023-03-20T01:46:59;11.57;;;8.25;;
51612;SDS011;37694;51.748;14.326;2023-03-20T01:51:53;14.07;;;8.60;;
51612;SDS011;37694;51.748;14.326;2023-03-20T01:59:21;12.00;;;8.25;;
51612;SDS011;37694;51.748;14.326;2023-03-20T02:01:52;10.68;;;7.78;;
51612;SDS011;37694;51.748;14.326;2023-03-20T02:04:19;12.50;;;8.38;;
51612;SDS011;37694;51.748;14.326;2023-03-20T02:06:51;9.85;;;7.60;;
51612;SDS011;37694;51.748;14.326;2023-03-20T02:09:16;11.80;;;8.05;;
51612;SDS011;37694;51.748;14.326;2023-03-20T02:11:42;11.48;;;7.95;;
51612;SDS011;37694;51.748;14.326;2023-03-20T02:14:10;10.32;;;8.60;;
51612;SDS011;37694;51.748;14.326;2023-03-20T02:16:37;13.07;;;8.27;;
51612;SDS011;37694;51.748;14.326;2023-03-20T02:19:03;9.95;;;7.47;;
51612;SDS011;37694;51.748;14.326;2023-03-20T02:21:53;12.02;;;7.28;;
51612;SDS011;37694;51.748;14.326;2023-03-20T02:35:45;9.40;;;7.85;;
51612;SDS011;37694;51.748;14.326;2023-03-20T02:52:24;9.88;;;7.75;;
51612;SDS011;37694;51.748;14.326;2023-03-20T02:55:12;9.60;;;7.72;;
51612;SDS011;37694;51.748;14.326;2023-03-20T02:57:43;9.63;;;7.43;;
51612;SDS011;37694;51.748;14.326;2023-03-20T03:03:05;10.15;;;7.95;;
51612;SDS011;37694;51.748;14.326;2023-03-20T03:05:47;12.02;;;8.13;;
51612;SDS011;37694;51.748;14.326;2023-03-20T03:08:19;7.47;;;6.70;;
51612;SDS011;37694;51.748;14.326;2023-03-20T03:10:48;8.60;;;7.47;;
51612;SDS011;37694;51.748;14.326;2023-03-20T03:13:20;7.47;;;6.57;;
51612;SDS011;37694;51.748;14.326;2023-03-20T03:15:52;11.02;;;7.97;;
51612;SDS011;37694;51.748;14.326;2023-03-20T03:18:23;8.57;;;7.53;;
51612;SDS011;37694;51.748;14.326;2023-03-20T03:20:51;8.98;;;7.07;;
51612;SDS011;37694;51.748;14.326;2023-03-20T03:23:26;9.63;;;7.95;;
51612;SDS011;37694;51.748;14.326;2023-03-20T03:25:57;10.77;;;7.35;;
51612;SDS011;37694;51.748;14.326;2023-03-20T03:28:38;10.75;;;7.10;;
51612;SDS011;37694;51.748;14.326;2023-03-20T03:31:08;7.65;;;6.72;;
51612;SDS011;37694;51.748;14.326;2023-03-20T03:33:41;8.57;;;7.07;;
51612;SDS011;37694;51.748;14.326;2023-03-20T03:38:41;10.65;;;7.28;;
51612;SDS011;37694;51.748;14.326;2023-03-20T03:43:46;8.65;;;7.05;;
51612;SDS011;37694;51.748;14.326;2023-03-20T03:49:11;12.85;;;6.90;;
51612;SDS011;37694;51.748;14.326;2023-03-20T03:51:41;8.68;;;7.05;;
51612;SDS011;37694;51.748;14.326;2023-03-20T03:54:17;8.48;;;7.47;;
51612;SDS011;37694;51.748;14.326;2023-03-20T03:56:46;11.52;;;7.72;;
51612;SDS011;37694;51.748;14.326;2023-03-20T03:59:25;8.32;;;7.28;;
51612;SDS011;37694;51.748;14.326;2023-03-20T04:01:58;7.35;;;6.60;;
51612;SDS011;37694;51.748;14.326;2023-03-20T04:04:27;9.95;;;6.60;;
51612;SDS011;37694;51.748;14.326;2023-03-20T04:06:54;10.95;;;6.93;;
51612;SDS011;37694;51.748;14.326;2023-03-20T04:09:20;9.98;;;7.20;;
51612;SDS011;37694;51.748;14.326;2023-03-20T04:11:47;7.82;;;7.00;;
51612;SDS011;37694;51.748;14.326;2023-03-20T04:14:15;8.27;;;6.75;;
51612;SDS011;37694;51.748;14.326;2023-03-20T04:16:40;8.18;;;6.68;;
51612;SDS011;37694;51.748;14.326;2023-03-20T04:19:07;7.80;;;6.75;;
51612;SDS011;37694;51.748;14.326;2023-03-20T04:21:32;8.27;;;7.38;;
51612;SDS011;37694;51.748;14.326;2023-03-20T04:23:58;9.70;;;6.70;;
51612;SDS011;37694;51.748;14.326;2023-03-20T04:26:24;8.25;;;7.32;;
51612;SDS011;37694;51.748;14.326;2023-03-20T04:28:50;8.13;;;7.05;;
51612;SDS011;37694;51.748;14.326;2023-03-20T04:31:16;7.07;;;6.38;;
51612;SDS011;37694;51.748;14.326;2023-03-20T04:33:42;7.13;;;6.30;;
51612;SDS011;37694;51.748;14.326;2023-03-20T04:36:08;7.93;;;6.75;;
51612;SDS011;37694;51.748;14.326;2023-03-20T04:38:34;9.45;;;6.07;;
51612;SDS011;37694;51.748;14.326;2023-03-20T04:41:00;8.57;;;6.38;;
51612;SDS011;37694;51.748;14.326;2023-03-20T04:43:27;7.25;;;6.53;;
51612;SDS011;37694;51.748;14.326;2023-03-20T04:45:52;8.38;;;6.30;;
51612;SDS011;37694;51.748;14.326;2023-03-20T04:48:18;10.88;;;5.97;;
51612;SDS011;37694;51.748;14.326;2023-03-20T04:50:44;8.00;;;6.13;;
51612;SDS011;37694;51.748;14.326;2023-03-20T04:53:14;7.57;;;6.38;;
51612;SDS011;37694;51.748;14.326;2023-03-20T04:55:41;7.53;;;5.97;;
51612;SDS011;37694;51.748;14.326;2023-03-20T04:58:06;12.38;;;6.70;;
51612;SDS011;37694;51.748;14.326;2023-03-20T05:00:32;7.75;;;6.43;;
51612;SDS011;37694;51.748;14.326;2023-03-20T05:02:58;7.30;;;5.97;;
51612;SDS011;37694;51.748;14.326;2023-03-20T05:05:24;8.27;;;6.38;;
51612;SDS011;37694;51.748;14.326;2023-03-20T05:07:50;6.82;;;5.68;;
51612;SDS011;37694;51.748;14.326;2023-03-20T05:10:16;8.65;;;6.45;;
51612;SDS011;37694;51.748;14.326;2023-03-20T05:12:42;7.32;;;5.80;;
51612;SDS011;37694;51.748;14.326;2023-03-20T05:15:08;6.07;;;5.47;;
51612;SDS011;37694;51.748;14.326;2023-03-20T05:17:34;8.05;;;5.72;;
51612;SDS011;37694;51.748;14.326;2023-03-20T05:20:00;8.75;;;6.40;;
51612;SDS011;37694;51.748;14.326;2023-03-20T05:22:26;7.10;;;5.85;;
51612;SDS011;37694;51.748;14.326;2023-03-20T05:24:52;7.03;;;6.10;;
51612;SDS011;37694;51.748;14.326;2023-03-20T05:27:17;7.07;;;6.38;;
51612;SDS011;37694;51.748;14.326;2023-03-20T05:29:43;7.28;;;5.40;;
51612;SDS011;37694;51.748;14.326;2023-03-20T05:32:09;6.20;;;5.60;;
51612;SDS011;37694;51.748;14.326;2023-03-20T05:34:36;7.38;;;5.68;;
51612;SDS011;37694;51.748;14.326;2023-03-20T05:37:02;8.93;;;6.60;;
51612;SDS011;37694;51.748;14.326;2023-03-20T05:39:28;7.03;;;6.32;;
51612;SDS011;37694;51.748;14.326;2023-03-20T05:41:53;8.80;;;5.53;;
51612;SDS011;37694;51.748;14.326;2023-03-20T05:44:19;8.50;;;5.50;;
51612;SDS011;37694;51.748;14.326;2023-03-20T05:46:45;6.22;;;5.55;;
51612;SDS011;37694;51.748;14.326;2023-03-20T05:49:11;6.32;;;5.63;;
51612;SDS011;37694;51.748;14.326;2023-03-20T05:51:36;5.95;;;5.38;;
51612;SDS011;37694;51.748;14.326;2023-03-20T05:54:02;7.70;;;5.75;;
51612;SDS011;37694;51.748;14.326;2023-03-20T05:56:28;6.47;;;5.25;;
51612;SDS011;37694;51.748;14.326;2023-03-20T05:58:54;6.47;;;5.60;;
51612;SDS011;37694;51.748;14.326;2023-03-20T06:01:20;5.50;;;5.00;;
51612;SDS011;37694;51.748;14.326;2023-03-20T06:03:46;8.07;;;5.80;;
51612;SDS011;37694;51.748;14.326;2023-03-20T06:06:13;6.47;;;5.75;;
51612;SDS011;37694;51.748;14.326;2023-03-20T06:08:39;9.40;;;5.95;;
51612;SDS011;37694;51.748;14.326;2023-03-20T06:11:05;9.73;;;5.72;;
51612;SDS011;37694;51.748;14.326;2023-03-20T06:13:31;10.18;;;5.97;;
51612;SDS011;37694;51.748;14.326;2023-03-20T06:15:57;16.98;;;5.72;;
51612;SDS011;37694;51.748;14.326;2023-03-20T06:18:23;11.98;;;4.85;;
51612;SDS011;37694;51.748;14.326;2023-03-20T06:20:52;11.43;;;5.00;;
51612;SDS011;37694;51.748;14.326;2023-03-20T06:23:18;29.85;;;6.50;;
51612;SDS011;37694;51.748;14.326;2023-03-20T06:25:44;29.63;;;5.88;;
51612;SDS011;37694;51.748;14.326;2023-03-20T06:28:10;15.50;;;6.45;;
51612;SDS011;37694;51.748;14.326;2023-03-20T06:30:36;26.02;;;6.00;;
51612;SDS011;37694;51.748;14.326;2023-03-20T06:33:02;38.78;;;5.82;;
51612;SDS011;37694;51.748;14.326;2023-03-20T06:35:30;27.55;;;5.15;;
51612;SDS011;37694;51.748;14.326;2023-03-20T06:37:56;25.17;;;6.20;;
51612;SDS011;37694;51.748;14.326;2023-03-20T06:40:22;17.08;;;6.10;;
51612;SDS011;37694;51.748;14.326;2023-03-20T06:42:48;14.73;;;6.10;;
51612;SDS011;37694;51.748;14.326;2023-03-20T06:45:13;21.27;;;6.00;;
51612;SDS011;37694;51.748;14.326;2023-03-20T06:47:39;19.67;;;6.30;;
51612;SDS011;37694;51.748;14.326;2023-03-20T06:50:06;34.35;;;6.75;;
51612;SDS011;37694;51.748;14.326;2023-03-20T06:52:32;13.57;;;5.03;;
51612;SDS011;37694;51.748;14.326;2023-03-20T06:54:57;13.30;;;4.95;;
51612;SDS011;37694;51.748;14.326;2023-03-20T06:57:23;15.68;;;5.05;;
51612;SDS011;37694;51.748;14.326;2023-03-20T06:59:49;13.40;;;5.15;;
51612;SDS011;37694;51.748;14.326;2023-03-20T07:02:14;24.48;;;5.57;;
51612;SDS011;37694;51.748;14.326;2023-03-20T07:04:40;21.33;;;6.00;;
51612;SDS011;37694;51.748;14.326;2023-03-20T07:07:06;33.45;;;7.65;;
51612;SDS011;37694;51.748;14.326;2023-03-20T07:09:32;40.58;;;10.68;;
51612;SDS011;37694;51.748;14.326;2023-03-20T07:11:58;51.92;;;12.32;;
51612;SDS011;37694;51.748;14.326;2023-03-20T07:14:24;42.75;;;11.10;;
51612;SDS011;37694;51.748;14.326;2023-03-20T07:16:51;48.15;;;11.90;;
51612;SDS011;37694;51.748;14.326;2023-03-20T07:19:17;29.85;;;8.50;;
51612;SDS011;37694;51.748;14.326;2023-03-20T07:21:43;40.92;;;11.18;;
51612;SDS011;37694;51.748;14.326;2023-03-20T07:24:09;36.65;;;9.65;;
51612;SDS011;37694;51.748;14.326;2023-03-20T07:26:36;47.85;;;10.05;;
51612;SDS011;37694;51.748;14.326;2023-03-20T07:29:02;47.58;;;8.88;;
51612;SDS011;37694;51.748;14.326;2023-03-20T07:31:28;48.72;;;10.07;;
51612;SDS011;37694;51.748;14.326;2023-03-20T07:33:55;32.97;;;9.40;;
51612;SDS011;37694;51.748;14.326;2023-03-20T07:36:21;37.13;;;10.15;;
51612;SDS011;37694;51.748;14.326;2023-03-20T07:38:46;38.92;;;9.88;;
51612;SDS011;37694;51.748;14.326;2023-03-20T07:41:12;38.38;;;9.10;;
51612;SDS011;37694;51.748;14.326;2023-03-20T07:43:38;42.47;;;8.88;;
51612;SDS011;37694;51.748;14.326;2023-03-20T07:46:04;31.58;;;10.00;;
51612;SDS011;37694;51.748;14.326;2023-03-20T07:48:32;31.45;;;8.63;;
51612;SDS011;37694;51.748;14.326;2023-03-20T07:50:58;45.38;;;8.63;;
51612;SDS011;37694;51.748;14.326;2023-03-20T07:53:23;20.77;;;7.50;;
51612;SDS011;37694;51.748;14.326;2023-03-20T07:55:49;21.45;;;7.32;;
51612;SDS011;37694;51.748;14.326;2023-03-20T07:58:15;24.77;;;8.23;;
51612;SDS011;37694;51.748;14.326;2023-03-20T08:00:41;27.75;;;7.60;;
51612;SDS011;37694;51.748;14.326;2023-03-20T08:03:07;22.05;;;7.85;;
51612;SDS011;37694;51.748;14.326;2023-03-20T08:05:33;24.83;;;8.27;;
51612;SDS011;37694;51.748;14.326;2023-03-20T08:07:59;26.40;;;7.95;;
51612;SDS011;37694;51.748;14.326;2023-03-20T08:10:25;18.05;;;7.28;;
51612;SDS011;37694;51.748;14.326;2023-03-20T08:12:51;28.10;;;7.28;;
51612;SDS011;37694;51.748;14.326;2023-03-20T08:15:17;21.58;;;7.28;;
51612;SDS011;37694;51.748;14.326;2023-03-20T08:17:43;28.38;;;8.40;;
51612;SDS011;37694;51.748;14.326;2023-03-20T08:20:10;15.93;;;6.60;;
51612;SDS011;37694;51.748;14.326;2023-03-20T08:22:38;14.88;;;6.53;;
51612;SDS011;37694;51.748;14.326;2023-03-20T08:25:05;16.23;;;7.28;;
51612;SDS011;37694;51.748;14.326;2023-03-20T08:27:32;16.00;;;7.10;;
51612;SDS011;37694;51.748;14.326;2023-03-20T08:29:58;13.95;;;6.38;;
51612;SDS011;37694;51.748;14.326;2023-03-20T08:32:24;26.23;;;7.47;;
51612;SDS011;37694;51.748;14.326;2023-03-20T08:34:50;21.10;;;6.90;;
51612;SDS011;37694;51.748;14.326;2023-03-20T08:37:16;14.20;;;6.88;;
51612;SDS011;37694;51.748;14.326;2023-03-20T08:39:42;16.77;;;6.70;;
51612;SDS011;37694;51.748;14.326;2023-03-20T08:42:08;18.30;;;6.78;;
51612;SDS011;37694;51.748;14.326;2023-03-20T08:44:34;12.02;;;5.95;;
51612;SDS011;37694;51.748;14.326;2023-03-20T08:46:59;15.63;;;6.38;;
51612;SDS011;37694;51.748;14.326;2023-03-20T08:49:25;16.60;;;6.40;;
51612;SDS011;37694;51.748;14.326;2023-03-20T08:51:51;10.48;;;6.07;;
51612;SDS011;37694;51.748;14.326;2023-03-20T08:54:17;14.75;;;5.90;;
51612;SDS011;37694;51.748;14.326;2023-03-20T08:56:46;16.05;;;6.72;;
51612;SDS011;37694;51.748;14.326;2023-03-20T08:59:11;10.70;;;5.88;;
51612;SDS011;37694;51.748;14.326;2023-03-20T09:01:37;18.27;;;7.28;;
51612;SDS011;37694;51.748;14.326;2023-03-20T09:04:03;10.65;;;5.93;;
51612;SDS011;37694;51.748;14.326;2023-03-20T09:06:29;10.75;;;5.75;;
51612;SDS011;37694;51.748;14.326;2023-03-20T09:08:55;12.30;;;6.00;;
51612;SDS011;37694;51.748;14.326;2023-03-20T09:11:21;12.90;;;6.07;;
51612;SDS011;37694;51.748;14.326;2023-03-20T09:13:48;10.25;;;6.03;;
51612;SDS011;37694;51.748;14.326;2023-03-20T09:16:13;12.25;;;5.97;;
51612;SDS011;37694;51.748;14.326;2023-03-20T09:18:39;13.27;;;6.45;;
51612;SDS011;37694;51.748;14.326;2023-03-20T09:21:05;15.80;;;6.97;;
51612;SDS011;37694;51.748;14.326;2023-03-20T09:23:31;11.57;;;6.10;;
51612;SDS011;37694;51.748;14.326;2023-03-20T09:25:56;11.18;;;5.30;;
51612;SDS011;37694;51.748;14.326;2023-03-20T09:28:22;9.93;;;5.80;;
51612;SDS011;37694;51.748;14.326;2023-03-20T09:30:48;16.60;;;6.68;;
51612;SDS011;37694;51.748;14.326;2023-03-20T09:33:13;11.18;;;6.35;;
51612;SDS011;37694;51.748;14.326;2023-03-20T09:35:39;10.85;;;6.05;;
51612;SDS011;37694;51.748;14.326;2023-03-20T09:38:05;11.30;;;5.93;;
51612;SDS011;37694;51.748;14.326;2023-03-20T09:46:03;8.88;;;6.03;;
51612;SDS011;37694;51.748;14.326;2023-03-20T09:51:37;13.18;;;6.18;;
51612;SDS011;37694;51.748;14.326;2023-03-20T09:54:35;12.45;;;6.15;;
51612;SDS011;37694;51.748;14.326;2023-03-20T09:57:09;12.45;;;5.60;;
51612;SDS011;37694;51.748;14.326;2023-03-20T09:59:44;9.52;;;6.10;;
51612;SDS011;37694;51.748;14.326;2023-03-20T10:02:18;14.65;;;5.35;;
51612;SDS011;37694;51.748;14.326;2023-03-20T10:04:57;13.52;;;5.63;;
51612;SDS011;37694;51.748;14.326;2023-03-20T10:07:23;10.00;;;5.90;;
51612;SDS011;37694;51.748;14.326;2023-03-20T10:09:50;12.27;;;6.40;;
51612;SDS011;37694;51.748;14.326;2023-03-20T10:12:23;8.98;;;5.97;;
51612;SDS011;37694;51.748;14.326;2023-03-20T10:18:11;12.68;;;6.10;;
51612;SDS011;37694;51.748;14.326;2023-03-20T10:20:50;9.98;;;5.53;;
51612;SDS011;37694;51.748;14.326;2023-03-20T10:25:55;18.25;;;6.13;;
51612;SDS011;37694;51.748;14.326;2023-03-20T10:28:29;16.17;;;5.85;;
51612;SDS011;37694;51.748;14.326;2023-03-20T10:36:26;14.38;;;5.47;;
51612;SDS011;37694;51.748;14.326;2023-03-20T10:41:27;12.70;;;5.88;;
51612;SDS011;37694;51.748;14.326;2023-03-20T10:43:57;16.00;;;6.80;;
51612;SDS011;37694;51.748;14.326;2023-03-20T10:46:25;16.25;;;5.85;;
51612;SDS011;37694;51.748;14.326;2023-03-20T10:49:15;21.67;;;5.95;;
51612;SDS011;37694;51.748;14.326;2023-03-20T10:51:51;15.27;;;4.75;;
51612;SDS011;37694;51.748;14.326;2023-03-20T10:54:23;8.32;;;5.32;;
51612;SDS011;37694;51.748;14.326;2023-03-20T10:56:54;10.75;;;5.00;;
51612;SDS011;37694;51.748;14.326;2023-03-20T11:01:52;17.67;;;5.18;;
51612;SDS011;37694;51.748;14.326;2023-03-20T11:04:19;14.30;;;4.50;;
51612;SDS011;37694;51.748;14.326;2023-03-20T11:09:26;12.10;;;4.80;;
51612;SDS011;37694;51.748;14.326;2023-03-20T11:11:58;13.18;;;5.15;;
51612;SDS011;37694;51.748;14.326;2023-03-20T11:14:26;5.38;;;4.10;;
51612;SDS011;37694;51.748;14.326;2023-03-20T11:17:02;18.63;;;5.10;;
51612;SDS011;37694;51.748;14.326;2023-03-20T11:19:31;8.25;;;4.25;;
51612;SDS011;37694;51.748;14.326;2023-03-20T11:22:00;18.00;;;4.65;;
51612;SDS011;37694;51.748;14.326;2023-03-20T11:24:44;11.18;;;5.00;;
51612;SDS011;37694;51.748;14.326;2023-03-20T11:27:12;14.43;;;4.70;;
51612;SDS011;37694;51.748;14.326;2023-03-20T11:29:41;7.03;;;4.55;;
51612;SDS011;37694;51.748;14.326;2023-03-20T11:34:44;8.55;;;4.68;;
51612;SDS011;37694;51.748;14.326;2023-03-20T11:37:26;10.00;;;4.20;;
51612;SDS011;37694;51.748;14.326;2023-03-20T11:40:15;8.45;;;3.95;;
51612;SDS011;37694;51.748;14.326;2023-03-20T11:42:50;16.05;;;4.30;;
51612;SDS011;37694;51.748;14.326;2023-03-20T11:45:21;6.50;;;3.92;;
51612;SDS011;37694;51.748;14.326;2023-03-20T11:47:48;8.50;;;3.80;;
51612;SDS011;37694;51.748;14.326;2023-03-20T11:50:29;12.35;;;4.22;;
51612;SDS011;37694;51.748;14.326;2023-03-20T11:52:57;7.07;;;4.00;;
51612;SDS011;37694;51.748;14.326;2023-03-20T11:55:31;7.72;;;4.40;;
51612;SDS011;37694;51.748;14.326;2023-03-20T11:58:00;4.93;;;3.80;;
51612;SDS011;37694;51.748;14.326;2023-03-20T12:00:29;6.30;;;3.92;;
51612;SDS011;37694;51.748;14.326;2023-03-20T12:03:01;7.07;;;4.22;;
51612;SDS011;37694;51.748;14.326;2023-03-20T12:05:29;6.47;;;4.18;;
51612;SDS011;37694;51.748;14.326;2023-03-20T12:08:02;8.27;;;4.03;;
51612;SDS011;37694;51.748;14.326;2023-03-20T12:10:45;8.43;;;3.90;;
51612;SDS011;37694;51.748;14.326;2023-03-20T12:13:24;8.68;;;4.97;;
51612;SDS011;37694;51.748;14.326;2023-03-20T12:16:02;14.35;;;8.25;;
51612;SDS011;37694;51.748;14.326;2023-03-20T12:18:32;13.35;;;8.43;;
51612;SDS011;37694;51.748;14.326;2023-03-20T12:23:52;14.75;;;7.25;;
51612;SDS011;37694;51.748;14.326;2023-03-20T12:31:43;12.85;;;7.53;;
51612;SDS011;37694;51.748;14.326;2023-03-20T12:34:36;11.27;;;7.00;;
51612;SDS011;37694;51.748;14.326;2023-03-20T12:37:30;15.73;;;7.22;;
51612;SDS011;37694;51.748;14.326;2023-03-20T12:39:57;12.68;;;6.70;;
51612;SDS011;37694;51.748;14.326;2023-03-20T12:45:04;11.10;;;6.20;;
51612;SDS011;37694;51.748;14.326;2023-03-20T12:50:38;10.40;;;5.28;;
51612;SDS011;37694;51.748;14.326;2023-03-20T12:58:46;13.55;;;4.95;;
51612;SDS011;37694;51.748;14.326;2023-03-20T13:01:54;7.15;;;4.85;;
51612;SDS011;37694;51.748;14.326;2023-03-20T13:07:21;10.18;;;4.80;;
51612;SDS011;37694;51.748;14.326;2023-03-20T13:10:19;13.77;;;4.22;;
51612;SDS011;37694;51.748;14.326;2023-03-20T13:13:50;11.50;;;4.35;;
51612;SDS011;37694;51.748;14.326;2023-03-20T13:15:54;13.90;;;4.72;;
51612;SDS011;37694;51.748;14.326;2023-03-20T13:27:14;8.02;;;3.97;;
51612;SDS011;37694;51.748;14.326;2023-03-20T13:30:10;5.00;;;3.17;;
51612;SDS011;37694;51.748;14.326;2023-03-20T13:33:11;8.00;;;3.72;;
51612;SDS011;37694;51.748;14.326;2023-03-20T13:38:25;8.57;;;3.35;;
51612;SDS011;37694;51.748;14.326;2023-03-20T13:41:07;5.93;;;3.47;;
51612;SDS011;37694;51.748;14.326;2023-03-20T13:43:48;10.35;;;3.40;;
51612;SDS011;37694;51.748;14.326;2023-03-20T13:47:05;7.18;;;3.90;;
51612;SDS011;37694;51.748;14.326;2023-03-20T13:49:14;6.55;;;3.40;;
51612;SDS011;37694;51.748;14.326;2023-03-20T13:51:54;8.00;;;4.38;;
51612;SDS011;37694;51.748;14.326;2023-03-20T13:54:38;9.35;;;3.65;;
51612;SDS011;37694;51.748;14.326;2023-03-20T13:57:37;8.30;;;4.07;;
51612;SDS011;37694;51.748;14.326;2023-03-20T14:00:26;12.55;;;4.28;;
51612;SDS011;37694;51.748;14.326;2023-03-20T14:05:34;8.07;;;3.75;;
51612;SDS011;37694;51.748;14.326;2023-03-20T14:08:23;10.13;;;4.03;;
51612;SDS011;37694;51.748;14.326;2023-03-20T14:13:20;9.18;;;3.80;;
51612;SDS011;37694;51.748;14.326;2023-03-20T14:15:50;8.25;;;4.00;;
51612;SDS011;37694;51.748;14.326;2023-03-20T14:18:21;13.65;;;4.38;;
51612;SDS011;37694;51.748;14.326;2023-03-20T14:21:01;5.43;;;3.72;;
51612;SDS011;37694;51.748;14.326;2023-03-20T14:23:34;8.70;;;4.72;;
51612;SDS011;37694;51.748;14.326;2023-03-20T14:28:44;7.13;;;3.22;;
51612;SDS011;37694;51.748;14.326;2023-03-20T14:31:30;7.18;;;3.75;;
51612;SDS011;37694;51.748;14.326;2023-03-20T14:36:49;7.57;;;3.40;;
51612;SDS011;37694;51.748;14.326;2023-03-20T14:44:56;9.20;;;3.80;;
51612;SDS011;37694;51.748;14.326;2023-03-20T14:47:35;5.53;;;4.00;;
51612;SDS011;37694;51.748;14.326;2023-03-20T14:53:08;11.50;;;4.55;;
51612;SDS011;37694;51.748;14.326;2023-03-20T15:00:53;11.50;;;4.00;;
51612;SDS011;37694;51.748;14.326;2023-03-20T15:03:19;12.23;;;4.25;;
51612;SDS011;37694;51.748;14.326;2023-03-20T15:05:46;9.70;;;4.30;;
51612;SDS011;37694;51.748;14.326;2023-03-20T15:08:24;11.85;;;3.92;;
51612;SDS011;37694;51.748;14.326;2023-03-20T15:10:55;23.98;;;5.70;;
51612;SDS011;37694;51.748;14.326;2023-03-20T15:13:23;14.23;;;4.03;;
51612;SDS011;37694;51.748;14.326;2023-03-20T15:18:20;11.75;;;4.22;;
51612;SDS011;37694;51.748;14.326;2023-03-20T15:20:47;9.68;;;4.10;;
51612;SDS011;37694;51.748;14.326;2023-03-20T15:23:13;14.15;;;4.60;;
51612;SDS011;37694;51.748;14.326;2023-03-20T15:25:43;9.45;;;3.80;;
51612;SDS011;37694;51.748;14.326;2023-03-20T15:28:14;16.88;;;4.65;;
51612;SDS011;37694;51.748;14.326;2023-03-20T15:30:43;13.10;;;3.67;;
51612;SDS011;37694;51.748;14.326;2023-03-20T15:33:32;21.55;;;5.43;;
51612;SDS011;37694;51.748;14.326;2023-03-20T15:36:05;7.43;;;3.80;;
51612;SDS011;37694;51.748;14.326;2023-03-20T15:38:32;11.98;;;3.50;;
51612;SDS011;37694;51.748;14.326;2023-03-20T15:41:46;16.83;;;4.00;;
51612;SDS011;37694;51.748;14.326;2023-03-20T15:46:39;14.13;;;3.65;;
51612;SDS011;37694;51.748;14.326;2023-03-20T15:49:17;24.08;;;4.78;;
51612;SDS011;37694;51.748;14.326;2023-03-20T15:51:47;25.83;;;4.80;;
51612;SDS011;37694;51.748;14.326;2023-03-20T15:54:14;26.55;;;5.28;;
51612;SDS011;37694;51.748;14.326;2023-03-20T15:56:45;27.98;;;7.18;;
51612;SDS011;37694;51.748;14.326;2023-03-20T15:59:15;19.23;;;4.72;;
51612;SDS011;37694;51.748;14.326;2023-03-20T16:01:44;20.88;;;4.93;;
51612;SDS011;37694;51.748;14.326;2023-03-20T16:04:15;29.48;;;5.22;;
51612;SDS011;37694;51.748;14.326;2023-03-20T16:06:46;20.90;;;4.50;;
51612;SDS011;37694;51.748;14.326;2023-03-20T16:09:12;23.05;;;5.72;;
51612;SDS011;37694;51.748;14.326;2023-03-20T16:11:41;12.77;;;5.00;;
51612;SDS011;37694;51.748;14.326;2023-03-20T16:14:11;23.70;;;4.93;;
51612;SDS011;37694;51.748;14.326;2023-03-20T16:16:40;16.90;;;5.50;;
51612;SDS011;37694;51.748;14.326;2023-03-20T16:19:07;19.25;;;5.60;;
51612;SDS011;37694;51.748;14.326;2023-03-20T16:21:53;18.65;;;4.60;;
51612;SDS011;37694;51.748;14.326;2023-03-20T16:24:26;12.30;;;4.13;;
51612;SDS011;37694;51.748;14.326;2023-03-20T16:27:00;16.80;;;4.75;;
51612;SDS011;37694;51.748;14.326;2023-03-20T16:29:33;19.58;;;4.88;;
51612;SDS011;37694;51.748;14.326;2023-03-20T16:32:04;25.08;;;4.55;;
51612;SDS011;37694;51.748;14.326;2023-03-20T16:34:35;15.13;;;4.85;;
51612;SDS011;37694;51.748;14.326;2023-03-20T16:37:06;20.70;;;4.82;;
51612;SDS011;37694;51.748;14.326;2023-03-20T16:39:45;7.82;;;3.78;;
51612;SDS011;37694;51.748;14.326;2023-03-20T16:42:20;15.25;;;5.05;;
51612;SDS011;37694;51.748;14.326;2023-03-20T16:44:55;16.77;;;4.60;;
51612;SDS011;37694;51.748;14.326;2023-03-20T16:47:23;15.50;;;4.43;;
51612;SDS011;37694;51.748;14.326;2023-03-20T16:50:04;16.60;;;4.85;;
51612;SDS011;37694;51.748;14.326;2023-03-20T16:52:40;16.00;;;4.18;;
51612;SDS011;37694;51.748;14.326;2023-03-20T16:55:13;20.27;;;5.60;;
51612;SDS011;37694;51.748;14.326;2023-03-20T16:57:41;20.70;;;4.78;;
51612;SDS011;37694;51.748;14.326;2023-03-20T17:00:19;8.77;;;4.20;;
51612;SDS011;37694;51.748;14.326;2023-03-20T17:03:04;19.50;;;5.13;;
51612;SDS011;37694;51.748;14.326;2023-03-20T17:05:53;10.85;;;3.65;;